sensor_id;sensor_type;location;lat;lon;timestamp;pressure;altitude;pressure_sealevel;temperature;humidity
17615;BME280;8926;49.720;6.576;2022-10-04T00:01:11;100534.75;;;10.49;88.00
17615;BME280;8926;49.720;6.576;2022-10-04T00:03:43;100532.19;;;10.48;87.31
17615;BME280;8926;49.720;6.576;2022-10-04T00:06:22;100528.81;;;10.46;87.58
17615;BME280;8926;49.720;6.576;2022-10-04T00:08:59;100525.28;;;10.47;87.77
17615;BME280;8926;49.720;6.576;2022-10-04T00:11:37;100537.44;;;10.48;87.57
17615;BME280;8926;49.720;6.576;2022-10-04T00:14:14;100527.09;;;10.45;88.16
17615;BME280;8926;49.720;6.576;2022-10-04T00:16:42;100540.81;;;10.50;87.88
17615;BME280;8926;49.720;6.576;2022-10-04T00:24:34;100539.19;;;10.47;87.30
17615;BME280;8926;49.720;6.576;2022-10-04T00:27:21;100535.72;;;10.47;87.85
17615;BME280;8926;49.720;6.576;2022-10-04T00:34:54;100525.69;;;10.38;87.11
17615;BME280;8926;49.720;6.576;2022-10-04T00:37:21;100528.88;;;10.24;87.50
17615;BME280;8926;49.720;6.576;2022-10-04T00:39:57;100528.03;;;10.24;88.64
17615;BME280;8926;49.720;6.576;2022-10-04T00:44:57;100530.78;;;10.20;88.86
17615;BME280;8926;49.720;6.576;2022-10-04T00:50:01;100523.78;;;10.21;89.20
17615;BME280;8926;49.720;6.576;2022-10-04T00:52:30;100524.66;;;10.22;88.94
17615;BME280;8926;49.720;6.576;2022-10-04T00:55:02;100524.75;;;10.18;88.34
17615;BME280;8926;49.720;6.576;2022-10-04T00:57:35;100508.28;;;10.16;88.44
17615;BME280;8926;49.720;6.576;2022-10-04T01:00:21;100511.03;;;10.13;88.28
17615;BME280;8926;49.720;6.576;2022-10-04T01:03:03;100507.84;;;10.07;88.07
17615;BME280;8926;49.720;6.576;2022-10-04T01:05:44;100506.94;;;10.08;89.00
17615;BME280;8926;49.720;6.576;2022-10-04T01:08:27;100507.91;;;10.05;88.18
17615;BME280;8926;49.720;6.576;2022-10-04T01:10:59;100501.72;;;10.08;88.08
17615;BME280;8926;49.720;6.576;2022-10-04T01:13:29;100494.72;;;10.08;88.46
17615;BME280;8926;49.720;6.576;2022-10-04T01:15:58;100492.13;;;10.08;88.31
17615;BME280;8926;49.720;6.576;2022-10-04T01:25:58;100487.69;;;10.10;88.91
17615;BME280;8926;49.720;6.576;2022-10-04T01:28:24;100487.63;;;10.12;88.17
17615;BME280;8926;49.720;6.576;2022-10-04T01:30:50;100485.78;;;10.14;88.54
17615;BME280;8926;49.720;6.576;2022-10-04T01:33:15;100484.00;;;10.14;88.17
17615;BME280;8926;49.720;6.576;2022-10-04T01:35:41;100481.41;;;10.14;88.36
17615;BME280;8926;49.720;6.576;2022-10-04T01:38:06;100474.63;;;10.10;88.04
17615;BME280;8926;49.720;6.576;2022-10-04T01:40:33;100472.81;;;10.12;87.97
17615;BME280;8926;49.720;6.576;2022-10-04T01:43:09;100466.75;;;10.12;88.06
17615;BME280;8926;49.720;6.576;2022-10-04T01:45:41;100464.81;;;10.15;88.29
17615;BME280;8926;49.720;6.576;2022-10-04T01:48:11;100462.19;;;10.15;88.54
17615;BME280;8926;49.720;6.576;2022-10-04T01:50:43;100449.09;;;10.17;88.06
17615;BME280;8926;49.720;6.576;2022-10-04T01:53:22;100458.59;;;10.19;88.01
17615;BME280;8926;49.720;6.576;2022-10-04T01:55:51;100457.84;;;10.16;87.85
17615;BME280;8926;49.720;6.576;2022-10-04T01:58:25;100453.69;;;10.12;87.63
17615;BME280;8926;49.720;6.576;2022-10-04T02:01:00;100446.59;;;10.14;88.46
17615;BME280;8926;49.720;6.576;2022-10-04T02:04:00;100437.00;;;10.14;88.58
17615;BME280;8926;49.720;6.576;2022-10-04T02:06:27;100433.72;;;10.11;88.25
17615;BME280;8926;49.720;6.576;2022-10-04T02:08:55;100433.06;;;10.06;88.56
17615;BME280;8926;49.720;6.576;2022-10-04T02:11:22;100439.78;;;10.11;89.01
17615;BME280;8926;49.720;6.576;2022-10-04T02:13:51;100424.97;;;10.12;89.10
17615;BME280;8926;49.720;6.576;2022-10-04T02:16:18;100427.78;;;10.07;88.72
17615;BME280;8926;49.720;6.576;2022-10-04T02:18:45;100420.28;;;10.00;89.17
17615;BME280;8926;49.720;6.576;2022-10-04T02:21:12;100433.38;;;9.98;89.02
17615;BME280;8926;49.720;6.576;2022-10-04T02:23:40;100428.28;;;9.95;89.60
17615;BME280;8926;49.720;6.576;2022-10-04T02:26:07;100422.41;;;9.90;89.61
17615;BME280;8926;49.720;6.576;2022-10-04T02:28:34;100435.34;;;9.93;89.29
17615;BME280;8926;49.720;6.576;2022-10-04T02:31:00;100427.56;;;9.92;89.87
17615;BME280;8926;49.720;6.576;2022-10-04T02:33:46;100428.41;;;9.92;89.98
17615;BME280;8926;49.720;6.576;2022-10-04T02:36:13;100417.84;;;9.95;90.12
17615;BME280;8926;49.720;6.576;2022-10-04T02:38:44;100421.38;;;9.94;90.03
17615;BME280;8926;49.720;6.576;2022-10-04T02:41:22;100408.31;;;9.94;89.42
17615;BME280;8926;49.720;6.576;2022-10-04T02:43:53;100414.31;;;9.96;89.39
17615;BME280;8926;49.720;6.576;2022-10-04T02:46:26;100415.13;;;9.98;88.99
17615;BME280;8926;49.720;6.576;2022-10-04T02:48:54;100422.03;;;9.99;88.67
17615;BME280;8926;49.720;6.576;2022-10-04T02:51:30;100415.97;;;9.99;88.54
17615;BME280;8926;49.720;6.576;2022-10-04T02:54:26;100414.31;;;9.96;88.03
17615;BME280;8926;49.720;6.576;2022-10-04T02:56:54;100414.53;;;9.92;87.32
17615;BME280;8926;49.720;6.576;2022-10-04T02:59:21;100413.19;;;9.83;87.67
17615;BME280;8926;49.720;6.576;2022-10-04T03:01:55;100414.81;;;9.85;88.24
17615;BME280;8926;49.720;6.576;2022-10-04T03:04:24;100407.66;;;9.89;87.99
17615;BME280;8926;49.720;6.576;2022-10-04T03:06:51;100405.84;;;9.91;87.98
17615;BME280;8926;49.720;6.576;2022-10-04T03:09:19;100404.31;;;9.87;87.42
17615;BME280;8926;49.720;6.576;2022-10-04T03:11:45;100405.06;;;9.89;87.69
17615;BME280;8926;49.720;6.576;2022-10-04T03:14:15;100408.81;;;9.83;88.24
17615;BME280;8926;49.720;6.576;2022-10-04T03:16:43;100399.22;;;9.84;88.82
17615;BME280;8926;49.720;6.576;2022-10-04T03:19:10;100405.34;;;9.83;89.32
17615;BME280;8926;49.720;6.576;2022-10-04T03:21:38;100409.78;;;9.81;88.83
17615;BME280;8926;49.720;6.576;2022-10-04T03:24:06;100407.13;;;9.82;89.32
17615;BME280;8926;49.720;6.576;2022-10-04T03:26:39;100409.66;;;9.84;89.02
17615;BME280;8926;49.720;6.576;2022-10-04T03:29:08;100419.13;;;9.86;88.56
17615;BME280;8926;49.720;6.576;2022-10-04T03:31:39;100413.31;;;9.80;88.55
17615;BME280;8926;49.720;6.576;2022-10-04T03:34:13;100414.41;;;9.74;88.71
17615;BME280;8926;49.720;6.576;2022-10-04T03:36:40;100408.34;;;9.74;89.18
17615;BME280;8926;49.720;6.576;2022-10-04T03:39:08;100410.94;;;9.74;89.21
17615;BME280;8926;49.720;6.576;2022-10-04T03:41:39;100411.63;;;9.79;87.91
17615;BME280;8926;49.720;6.576;2022-10-04T03:44:14;100412.72;;;9.73;87.95
17615;BME280;8926;49.720;6.576;2022-10-04T03:46:42;100404.94;;;9.72;88.05
17615;BME280;8926;49.720;6.576;2022-10-04T03:49:08;100412.91;;;9.69;88.30
17615;BME280;8926;49.720;6.576;2022-10-04T03:51:37;100414.72;;;9.67;88.42
17615;BME280;8926;49.720;6.576;2022-10-04T03:54:09;100419.16;;;9.65;88.30
17615;BME280;8926;49.720;6.576;2022-10-04T03:56:37;100422.69;;;9.64;88.93
17615;BME280;8926;49.720;6.576;2022-10-04T03:59:06;100420.00;;;9.65;88.17
17615;BME280;8926;49.720;6.576;2022-10-04T04:01:41;100419.16;;;9.65;87.87
17615;BME280;8926;49.720;6.576;2022-10-04T04:04:28;100428.06;;;9.61;88.00
17615;BME280;8926;49.720;6.576;2022-10-04T04:07:09;100424.78;;;9.56;87.59
17615;BME280;8926;49.720;6.576;2022-10-04T04:10:16;100434.44;;;9.53;87.69
17615;BME280;8926;49.720;6.576;2022-10-04T04:12:38;100421.38;;;9.53;87.49
17615;BME280;8926;49.720;6.576;2022-10-04T04:15:08;100413.88;;;9.46;87.27
17615;BME280;8926;49.720;6.576;2022-10-04T04:17:41;100411.56;;;9.38;87.79
17615;BME280;8926;49.720;6.576;2022-10-04T04:20:22;100402.97;;;9.36;88.77
17615;BME280;8926;49.720;6.576;2022-10-04T04:23:24;100395.91;;;9.38;87.94
17615;BME280;8926;49.720;6.576;2022-10-04T04:25:49;100397.75;;;9.36;88.08
17615;BME280;8926;49.720;6.576;2022-10-04T04:28:26;100395.91;;;9.38;88.40
17615;BME280;8926;49.720;6.576;2022-10-04T04:31:07;100394.09;;;9.40;88.32
17615;BME280;8926;49.720;6.576;2022-10-04T04:33:46;100384.41;;;9.44;88.31
17615;BME280;8926;49.720;6.576;2022-10-04T04:36:14;100376.56;;;9.44;88.79
17615;BME280;8926;49.720;6.576;2022-10-04T04:38:41;100383.28;;;9.49;88.38
17615;BME280;8926;49.720;6.576;2022-10-04T04:41:27;100390.94;;;9.54;88.33
17615;BME280;8926;49.720;6.576;2022-10-04T04:43:55;100386.56;;;9.55;87.78
17615;BME280;8926;49.720;6.576;2022-10-04T04:46:21;100386.56;;;9.55;88.36
17615;BME280;8926;49.720;6.576;2022-10-04T04:48:48;100397.00;;;9.55;87.91
17615;BME280;8926;49.720;6.576;2022-10-04T04:51:20;100390.09;;;9.53;86.86
17615;BME280;8926;49.720;6.576;2022-10-04T04:53:46;100388.50;;;9.49;87.06
17615;BME280;8926;49.720;6.576;2022-10-04T04:56:16;100384.47;;;9.42;86.60
17615;BME280;8926;49.720;6.576;2022-10-04T04:58:45;100383.22;;;9.31;86.91
17615;BME280;8926;49.720;6.576;2022-10-04T05:01:21;100387.72;;;9.27;88.14
17615;BME280;8926;49.720;6.576;2022-10-04T05:04:02;100392.25;;;9.22;88.00
17615;BME280;8926;49.720;6.576;2022-10-04T05:06:29;100386.94;;;9.25;87.97
17615;BME280;8926;49.720;6.576;2022-10-04T05:08:55;100378.97;;;9.28;87.77
17615;BME280;8926;49.720;6.576;2022-10-04T05:11:23;100390.31;;;9.27;87.98
17615;BME280;8926;49.720;6.576;2022-10-04T05:13:59;100391.22;;;9.26;87.86
17615;BME280;8926;49.720;6.576;2022-10-04T05:19:43;100389.00;;;9.17;87.55
17615;BME280;8926;49.720;6.576;2022-10-04T05:21:53;100398.91;;;9.09;87.89
17615;BME280;8926;49.720;6.576;2022-10-04T05:26:53;100399.03;;;9.06;88.29
17615;BME280;8926;49.720;6.576;2022-10-04T05:29:23;100389.38;;;9.08;88.50
17615;BME280;8926;49.720;6.576;2022-10-04T05:34:39;100396.19;;;9.10;89.22
17615;BME280;8926;49.720;6.576;2022-10-04T05:37:17;100393.41;;;9.15;89.04
17615;BME280;8926;49.720;6.576;2022-10-04T05:40:12;100387.91;;;9.23;88.79
17615;BME280;8926;49.720;6.576;2022-10-04T05:42:46;100392.06;;;9.27;88.49
17615;BME280;8926;49.720;6.576;2022-10-04T05:45:21;100389.28;;;9.31;88.33
17615;BME280;8926;49.720;6.576;2022-10-04T05:47:52;100380.44;;;9.35;88.47
17615;BME280;8926;49.720;6.576;2022-10-04T05:50:22;100385.66;;;9.35;87.86
17615;BME280;8926;49.720;6.576;2022-10-04T05:52:50;100388.88;;;9.40;88.03
17615;BME280;8926;49.720;6.576;2022-10-04T05:55:24;100381.72;;;9.45;87.55
17615;BME280;8926;49.720;6.576;2022-10-04T06:01:12;100386.41;;;9.37;87.18
17615;BME280;8926;49.720;6.576;2022-10-04T06:04:00;100397.06;;;9.33;87.21
17615;BME280;8926;49.720;6.576;2022-10-04T06:06:40;100394.50;;;9.31;87.55
17615;BME280;8926;49.720;6.576;2022-10-04T06:12:45;100387.31;;;9.36;87.35
17615;BME280;8926;49.720;6.576;2022-10-04T06:15:24;100388.88;;;9.40;88.31
17615;BME280;8926;49.720;6.576;2022-10-04T06:26:51;100398.22;;;9.46;87.28
17615;BME280;8926;49.720;6.576;2022-10-04T06:29:22;100394.69;;;9.47;87.81
17615;BME280;8926;49.720;6.576;2022-10-04T06:32:09;100395.56;;;9.47;87.17
17615;BME280;8926;49.720;6.576;2022-10-04T06:37:30;100395.44;;;9.50;86.83
17615;BME280;8926;49.720;6.576;2022-10-04T06:40:33;100390.34;;;9.47;86.07
17615;BME280;8926;49.720;6.576;2022-10-04T06:51:22;100409.25;;;9.32;85.25
17615;BME280;8926;49.720;6.576;2022-10-04T06:54:11;100405.78;;;9.32;85.18
17615;BME280;8926;49.720;6.576;2022-10-04T06:57:14;100403.22;;;9.30;85.32
17615;BME280;8926;49.720;6.576;2022-10-04T07:02:25;100411.56;;;9.38;85.76
17615;BME280;8926;49.720;6.576;2022-10-04T07:05:01;100416.66;;;9.41;86.13
17615;BME280;8926;49.720;6.576;2022-10-04T07:07:35;100408.06;;;9.39;85.89
17615;BME280;8926;49.720;6.576;2022-10-04T07:10:20;100412.16;;;9.45;85.86
17615;BME280;8926;49.720;6.576;2022-10-04T07:13:10;100410.34;;;9.47;86.93
17615;BME280;8926;49.720;6.576;2022-10-04T07:15:59;100405.97;;;9.47;86.32
17615;BME280;8926;49.720;6.576;2022-10-04T07:18:56;100410.16;;;9.51;86.22
17615;BME280;8926;49.720;6.576;2022-10-04T07:21:26;100409.97;;;9.56;86.01
17615;BME280;8926;49.720;6.576;2022-10-04T07:23:59;100414.28;;;9.57;86.01
17615;BME280;8926;49.720;6.576;2022-10-04T07:26:45;100405.59;;;9.57;86.22
17615;BME280;8926;49.720;6.576;2022-10-04T07:29:36;100404.03;;;9.52;85.59
17615;BME280;8926;49.720;6.576;2022-10-04T07:34:32;100406.72;;;9.51;85.51
17615;BME280;8926;49.720;6.576;2022-10-04T07:37:06;100404.03;;;9.52;86.20
17615;BME280;8926;49.720;6.576;2022-10-04T07:39:41;100414.47;;;9.52;85.91
17615;BME280;8926;49.720;6.576;2022-10-04T07:44:46;100416.91;;;9.57;85.65
17615;BME280;8926;49.720;6.576;2022-10-04T07:47:23;100422.69;;;9.64;85.67
17615;BME280;8926;49.720;6.576;2022-10-04T07:49:50;100418.19;;;9.67;85.41
17615;BME280;8926;49.720;6.576;2022-10-04T07:55:21;100401.19;;;9.79;85.41
17615;BME280;8926;49.720;6.576;2022-10-04T08:03:33;100401.13;;;10.19;84.27
17615;BME280;8926;49.720;6.576;2022-10-04T08:09:02;100388.72;;;10.25;83.94
17615;BME280;8926;49.720;6.576;2022-10-04T08:19:22;100396.94;;;10.36;83.59
17615;BME280;8926;49.720;6.576;2022-10-04T08:21:58;100398.63;;;10.37;83.36
17615;BME280;8926;49.720;6.576;2022-10-04T08:24:31;100401.72;;;10.45;83.20
17615;BME280;8926;49.720;6.576;2022-10-04T08:38:12;100394.66;;;10.47;83.62
17615;BME280;8926;49.720;6.576;2022-10-04T08:41:18;100396.09;;;10.54;83.78
17615;BME280;8926;49.720;6.576;2022-10-04T08:54:48;100403.22;;;10.88;83.06
17615;BME280;8926;49.720;6.576;2022-10-04T09:05:57;100394.84;;;10.99;82.63
17615;BME280;8926;49.720;6.576;2022-10-04T09:11:42;100401.88;;;10.79;82.95
17615;BME280;8926;49.720;6.576;2022-10-04T09:26:04;100378.78;;;11.06;82.62
17615;BME280;8926;49.720;6.576;2022-10-04T09:37:19;100367.50;;;11.57;82.43
17615;BME280;8926;49.720;6.576;2022-10-04T09:43:10;100369.31;;;11.73;81.14
17615;BME280;8926;49.720;6.576;2022-10-04T09:48:45;100374.63;;;12.21;80.35
17615;BME280;8926;49.720;6.576;2022-10-04T09:51:29;100368.88;;;12.64;79.14
17615;BME280;8926;49.720;6.576;2022-10-04T10:02:45;100365.38;;;13.40;75.84
17615;BME280;8926;49.720;6.576;2022-10-04T10:10:53;100346.31;;;13.67;75.66
17615;BME280;8926;49.720;6.576;2022-10-04T10:22:08;100338.69;;;15.80;69.38
17615;BME280;8926;49.720;6.576;2022-10-04T10:30:20;100335.28;;;17.59;65.28
17615;BME280;8926;49.720;6.576;2022-10-04T10:33:09;100321.16;;;17.83;63.13
17615;BME280;8926;49.720;6.576;2022-10-04T10:35:51;100330.06;;;18.04;63.61
17615;BME280;8926;49.720;6.576;2022-10-04T10:38:49;100325.94;;;18.22;61.30
17615;BME280;8926;49.720;6.576;2022-10-04T10:41:34;100325.22;;;18.43;62.64
17615;BME280;8926;49.720;6.576;2022-10-04T10:44:21;100330.25;;;18.68;63.62
17615;BME280;8926;49.720;6.576;2022-10-04T10:49:53;100329.94;;;18.93;61.57
17615;BME280;8926;49.720;6.576;2022-10-04T10:52:55;100324.31;;;19.08;58.34
17615;BME280;8926;49.720;6.576;2022-10-04T11:03:40;100314.31;;;19.64;59.09
17615;BME280;8926;49.720;6.576;2022-10-04T11:09:45;100308.16;;;19.63;58.02
17615;BME280;8926;49.720;6.576;2022-10-04T11:14:55;100296.06;;;19.71;58.20
17615;BME280;8926;49.720;6.576;2022-10-04T11:28:42;100271.59;;;20.38;57.21
17615;BME280;8926;49.720;6.576;2022-10-04T11:37:29;100247.88;;;20.65;57.27
17615;BME280;8926;49.720;6.576;2022-10-04T11:40:04;100256.00;;;20.73;57.76
17615;BME280;8926;49.720;6.576;2022-10-04T11:42:59;100239.78;;;20.86;58.74
17615;BME280;8926;49.720;6.576;2022-10-04T11:45:51;100240.91;;;20.83;58.22
17615;BME280;8926;49.720;6.576;2022-10-04T11:57:11;100236.56;;;20.92;58.28
17615;BME280;8926;49.720;6.576;2022-10-04T12:00:00;100235.72;;;20.91;56.37
17615;BME280;8926;49.720;6.576;2022-10-04T12:06:02;100221.59;;;20.81;56.51
17615;BME280;8926;49.720;6.576;2022-10-04T12:08:52;100224.13;;;20.92;57.08
17615;BME280;8926;49.720;6.576;2022-10-04T12:11:59;100221.19;;;20.86;56.86
17615;BME280;8926;49.720;6.576;2022-10-04T12:15:30;100215.44;;;20.90;56.33
17615;BME280;8926;49.720;6.576;2022-10-04T12:29:03;100201.19;;;20.53;56.81
17615;BME280;8926;49.720;6.576;2022-10-04T12:31:40;100191.97;;;20.57;57.52
17615;BME280;8926;49.720;6.576;2022-10-04T12:39:41;100190.03;;;20.59;57.22
17615;BME280;8926;49.720;6.576;2022-10-04T12:42:27;100183.63;;;20.52;57.67
17615;BME280;8926;49.720;6.576;2022-10-04T12:48:01;100186.28;;;20.52;57.61
17615;BME280;8926;49.720;6.576;2022-10-04T13:01:56;100179.66;;;20.37;55.77
17615;BME280;8926;49.720;6.576;2022-10-04T13:04:47;100188.59;;;20.36;57.79
17615;BME280;8926;49.720;6.576;2022-10-04T13:18:54;100167.38;;;20.26;56.38
17615;BME280;8926;49.720;6.576;2022-10-04T13:27:27;100157.31;;;20.01;56.87
17615;BME280;8926;49.720;6.576;2022-10-04T13:30:03;100160.91;;;19.90;57.36
17615;BME280;8926;49.720;6.576;2022-10-04T13:35:22;100149.19;;;19.92;58.16
17615;BME280;8926;49.720;6.576;2022-10-04T13:38:01;100150.59;;;19.96;57.30
17615;BME280;8926;49.720;6.576;2022-10-04T13:43:40;100153.63;;;19.82;57.18
17615;BME280;8926;49.720;6.576;2022-10-04T14:04:52;100141.06;;;19.75;58.54
17615;BME280;8926;49.720;6.576;2022-10-04T14:16:01;100140.06;;;19.66;60.01
17615;BME280;8926;49.720;6.576;2022-10-04T14:18:53;100147.72;;;19.69;59.59
17615;BME280;8926;49.720;6.576;2022-10-04T14:22:03;100136.28;;;19.69;59.12
17615;BME280;8926;49.720;6.576;2022-10-04T14:27:07;100139.91;;;19.68;59.45
17615;BME280;8926;49.720;6.576;2022-10-04T14:29:57;100139.66;;;19.71;60.00
17615;BME280;8926;49.720;6.576;2022-10-04T14:40:37;100137.22;;;19.58;59.71
17615;BME280;8926;49.720;6.576;2022-10-04T14:43:50;100133.88;;;19.56;59.93
17615;BME280;8926;49.720;6.576;2022-10-04T14:49:19;100132.59;;;19.50;60.50
17615;BME280;8926;49.720;6.576;2022-10-04T15:00:18;100131.19;;;19.46;61.32
17615;BME280;8926;49.720;6.576;2022-10-04T15:10:51;100120.47;;;19.27;61.87
17615;BME280;8926;49.720;6.576;2022-10-04T15:13:25;100114.47;;;19.25;62.16
17615;BME280;8926;49.720;6.576;2022-10-04T15:16:09;100109.59;;;19.20;62.12
17615;BME280;8926;49.720;6.576;2022-10-04T15:21:37;100099.72;;;19.02;61.70
17615;BME280;8926;49.720;6.576;2022-10-04T15:29:44;100087.28;;;18.62;63.58
17615;BME280;8926;49.720;6.576;2022-10-04T15:37:23;100088.63;;;18.24;65.44
17615;BME280;8926;49.720;6.576;2022-10-04T15:40:04;100085.22;;;18.13;65.46
17615;BME280;8926;49.720;6.576;2022-10-04T15:42:38;100081.75;;;18.01;66.19
17615;BME280;8926;49.720;6.576;2022-10-04T15:56:18;100061.22;;;17.50;68.68
17615;BME280;8926;49.720;6.576;2022-10-04T16:04:32;100061.25;;;17.28;69.55
17615;BME280;8926;49.720;6.576;2022-10-04T16:21:03;100076.75;;;16.99;70.23
17615;BME280;8926;49.720;6.576;2022-10-04T16:23:37;100079.50;;;16.98;70.74
17615;BME280;8926;49.720;6.576;2022-10-04T16:31:44;100078.69;;;16.86;71.22
17615;BME280;8926;49.720;6.576;2022-10-04T16:34:28;100079.03;;;16.81;71.32
17615;BME280;8926;49.720;6.576;2022-10-04T16:37:00;100084.78;;;16.75;72.06
17615;BME280;8926;49.720;6.576;2022-10-04T16:42:48;100085.66;;;16.63;72.29
17615;BME280;8926;49.720;6.576;2022-10-04T16:48:11;100097.16;;;16.51;73.04
17615;BME280;8926;49.720;6.576;2022-10-04T16:53:36;100093.66;;;16.39;72.84
17615;BME280;8926;49.720;6.576;2022-10-04T16:58:48;100097.09;;;16.28;73.29
17615;BME280;8926;49.720;6.576;2022-10-04T17:09:45;100115.34;;;16.08;73.79
17615;BME280;8926;49.720;6.576;2022-10-04T17:12:23;100116.66;;;16.02;73.94
17615;BME280;8926;49.720;6.576;2022-10-04T17:17:55;100125.66;;;15.87;73.91
17615;BME280;8926;49.720;6.576;2022-10-04T17:26:12;100144.38;;;15.71;75.03
17615;BME280;8926;49.720;6.576;2022-10-04T17:28:46;100143.00;;;15.66;76.05
17615;BME280;8926;49.720;6.576;2022-10-04T17:31:43;100146.06;;;15.59;76.24
17615;BME280;8926;49.720;6.576;2022-10-04T17:36:38;100148.59;;;15.48;76.63
17615;BME280;8926;49.720;6.576;2022-10-04T17:39:16;100143.75;;;15.42;76.71
17615;BME280;8926;49.720;6.576;2022-10-04T17:42:01;100147.56;;;15.38;76.41
17615;BME280;8926;49.720;6.576;2022-10-04T17:50:04;100145.91;;;15.24;77.52
17615;BME280;8926;49.720;6.576;2022-10-04T17:52:58;100149.78;;;15.19;77.29
17615;BME280;8926;49.720;6.576;2022-10-04T17:55:50;100153.06;;;15.10;78.17
17615;BME280;8926;49.720;6.576;2022-10-04T18:01:11;100150.75;;;14.92;79.02
17615;BME280;8926;49.720;6.576;2022-10-04T18:03:45;100152.75;;;14.89;78.60
17615;BME280;8926;49.720;6.576;2022-10-04T18:06:30;100160.63;;;14.89;78.19
17615;BME280;8926;49.720;6.576;2022-10-04T18:09:07;100159.34;;;14.82;78.56
17615;BME280;8926;49.720;6.576;2022-10-04T18:11:44;100159.78;;;14.76;78.77
17615;BME280;8926;49.720;6.576;2022-10-04T18:17:04;100155.97;;;14.67;78.65
17615;BME280;8926;49.720;6.576;2022-10-04T18:19:43;100147.56;;;14.62;79.04
17615;BME280;8926;49.720;6.576;2022-10-04T18:22:15;100158.28;;;14.59;79.54
17615;BME280;8926;49.720;6.576;2022-10-04T18:24:46;100149.03;;;14.53;79.84
17615;BME280;8926;49.720;6.576;2022-10-04T18:27:22;100166.16;;;14.46;79.67
17615;BME280;8926;49.720;6.576;2022-10-04T18:30:14;100152.53;;;14.40;80.53
17615;BME280;8926;49.720;6.576;2022-10-04T18:32:44;100164.75;;;14.41;80.24
17615;BME280;8926;49.720;6.576;2022-10-04T18:35:25;100170.00;;;14.41;79.85
17615;BME280;8926;49.720;6.576;2022-10-04T18:38:27;100178.66;;;14.43;79.48
17615;BME280;8926;49.720;6.576;2022-10-04T18:46:15;100183.91;;;14.43;80.04
17615;BME280;8926;49.720;6.576;2022-10-04T18:48:55;100194.78;;;14.37;79.34
17615;BME280;8926;49.720;6.576;2022-10-04T18:51:28;100195.16;;;14.31;80.25
17615;BME280;8926;49.720;6.576;2022-10-04T18:54:12;100202.53;;;14.25;79.88
17615;BME280;8926;49.720;6.576;2022-10-04T19:08:27;100218.75;;;13.91;81.96
17615;BME280;8926;49.720;6.576;2022-10-04T19:11:32;100200.19;;;13.80;82.24
17615;BME280;8926;49.720;6.576;2022-10-04T19:16:59;100208.28;;;13.63;83.18
17615;BME280;8926;49.720;6.576;2022-10-04T19:19:51;100213.91;;;13.56;83.22
17615;BME280;8926;49.720;6.576;2022-10-04T19:22:25;100208.84;;;13.53;83.01
17615;BME280;8926;49.720;6.576;2022-10-04T19:25:19;100214.31;;;13.50;83.27
17615;BME280;8926;49.720;6.576;2022-10-04T19:28:06;100215.22;;;13.49;83.85
17615;BME280;8926;49.720;6.576;2022-10-04T19:33:49;100217.03;;;13.49;82.80
17615;BME280;8926;49.720;6.576;2022-10-04T19:36:50;100224.97;;;13.47;83.82
17615;BME280;8926;49.720;6.576;2022-10-04T19:42:07;100228.72;;;13.43;83.46
17615;BME280;8926;49.720;6.576;2022-10-04T19:45:01;100235.84;;;13.41;83.97
17615;BME280;8926;49.720;6.576;2022-10-04T19:47:37;100221.13;;;13.39;82.97
17615;BME280;8926;49.720;6.576;2022-10-04T19:50:17;100230.97;;;13.35;82.83
17615;BME280;8926;49.720;6.576;2022-10-04T19:53:04;100243.31;;;13.33;83.94
17615;BME280;8926;49.720;6.576;2022-10-04T19:55:57;100246.88;;;13.32;83.52
17615;BME280;8926;49.720;6.576;2022-10-04T19:58:43;100240.34;;;13.25;83.19
17615;BME280;8926;49.720;6.576;2022-10-04T20:01:19;100231.91;;;13.20;83.53
17615;BME280;8926;49.720;6.576;2022-10-04T20:03:47;100242.56;;;13.17;83.23
17615;BME280;8926;49.720;6.576;2022-10-04T20:06:33;100241.19;;;13.10;83.55
17615;BME280;8926;49.720;6.576;2022-10-04T20:09:29;100235.28;;;13.06;83.60
17615;BME280;8926;49.720;6.576;2022-10-04T20:11:55;100238.38;;;12.99;83.69
17615;BME280;8926;49.720;6.576;2022-10-04T20:19:36;100226.72;;;12.88;83.78
17615;BME280;8926;49.720;6.576;2022-10-04T20:26:59;100228.78;;;12.83;83.74
17615;BME280;8926;49.720;6.576;2022-10-04T20:37:02;100212.44;;;12.64;84.46
17615;BME280;8926;49.720;6.576;2022-10-04T20:42:36;100212.44;;;12.64;84.40
17615;BME280;8926;49.720;6.576;2022-10-04T20:47:42;100198.75;;;12.59;84.46
17615;BME280;8926;49.720;6.576;2022-10-04T20:50:38;100204.16;;;12.56;84.66
17615;BME280;8926;49.720;6.576;2022-10-04T20:53:12;100191.97;;;12.55;84.84
17615;BME280;8926;49.720;6.576;2022-10-04T20:55:39;100192.81;;;12.55;84.69
17615;BME280;8926;49.720;6.576;2022-10-04T20:58:29;100199.00;;;12.54;84.88
17615;BME280;8926;49.720;6.576;2022-10-04T21:01:02;100197.41;;;12.52;84.80
17615;BME280;8926;49.720;6.576;2022-10-04T21:03:38;100194.03;;;12.50;84.08
17615;BME280;8926;49.720;6.576;2022-10-04T21:06:06;100196.63;;;12.50;84.72
17615;BME280;8926;49.720;6.576;2022-10-04T21:08:33;100203.00;;;12.46;84.67
17615;BME280;8926;49.720;6.576;2022-10-04T21:11:07;100196.09;;;12.45;84.25
17615;BME280;8926;49.720;6.576;2022-10-04T21:16:40;100198.03;;;12.41;83.92
17615;BME280;8926;49.720;6.576;2022-10-04T21:22:06;100205.38;;;12.35;84.19
17615;BME280;8926;49.720;6.576;2022-10-04T21:24:57;100207.25;;;12.33;84.53
17615;BME280;8926;49.720;6.576;2022-10-04T21:27:34;100198.53;;;12.32;84.40
17615;BME280;8926;49.720;6.576;2022-10-04T21:30:13;100203.88;;;12.31;84.43
17615;BME280;8926;49.720;6.576;2022-10-04T21:32:40;100207.41;;;12.30;84.01
17615;BME280;8926;49.720;6.576;2022-10-04T21:35:06;100209.28;;;12.28;84.44
17615;BME280;8926;49.720;6.576;2022-10-04T21:37:32;100208.69;;;12.22;84.13
17615;BME280;8926;49.720;6.576;2022-10-04T21:39:58;100207.09;;;12.20;84.94
17615;BME280;8926;49.720;6.576;2022-10-04T21:42:24;100201.03;;;12.19;84.56
17615;BME280;8926;49.720;6.576;2022-10-04T21:44:49;100205.59;;;12.16;85.45
17615;BME280;8926;49.720;6.576;2022-10-04T21:47:14;100209.81;;;12.18;85.45
17615;BME280;8926;49.720;6.576;2022-10-04T21:49:40;100203.66;;;12.19;85.46
17615;BME280;8926;49.720;6.576;2022-10-04T21:52:05;100196.81;;;12.17;85.79